sensor_id;sensor_type;location;lat;lon;timestamp;P1;durP1;ratioP1;P2;durP2;ratioP2
48835;SDS011;62581;47.342;7.908;2023-09-30T00:01:09;21.30;;;7.63;;
48835;SDS011;62581;47.342;7.908;2023-09-30T00:03:36;21.17;;;8.20;;
48835;SDS011;62581;47.342;7.908;2023-09-30T00:06:04;25.33;;;8.98;;
48835;SDS011;62581;47.342;7.908;2023-09-30T00:08:31;22.77;;;7.85;;
48835;SDS011;62581;47.342;7.908;2023-09-30T00:10:58;24.67;;;7.65;;
48835;SDS011;62581;47.342;7.908;2023-09-30T00:13:25;23.70;;;8.23;;
48835;SDS011;62581;47.342;7.908;2023-09-30T00:15:53;20.67;;;7.82;;
48835;SDS011;62581;47.342;7.908;2023-09-30T00:18:21;19.40;;;7.60;;
48835;SDS011;62581;47.342;7.908;2023-09-30T00:20:48;21.77;;;7.97;;
48835;SDS011;62581;47.342;7.908;2023-09-30T00:23:15;20.65;;;8.45;;
48835;SDS011;62581;47.342;7.908;2023-09-30T00:25:43;20.92;;;7.47;;
48835;SDS011;62581;47.342;7.908;2023-09-30T00:28:11;20.00;;;8.02;;
48835;SDS011;62581;47.342;7.908;2023-09-30T00:30:39;27.58;;;7.95;;
48835;SDS011;62581;47.342;7.908;2023-09-30T00:33:06;18.95;;;7.68;;
48835;SDS011;62581;47.342;7.908;2023-09-30T00:35:35;19.98;;;7.63;;
48835;SDS011;62581;47.342;7.908;2023-09-30T00:38:02;18.90;;;7.68;;
48835;SDS011;62581;47.342;7.908;2023-09-30T00:40:29;27.38;;;8.73;;
48835;SDS011;62581;47.342;7.908;2023-09-30T00:42:57;21.38;;;7.35;;
48835;SDS011;62581;47.342;7.908;2023-09-30T00:45:24;21.53;;;7.93;;
48835;SDS011;62581;47.342;7.908;2023-09-30T00:47:51;20.80;;;8.15;;
48835;SDS011;62581;47.342;7.908;2023-09-30T00:50:19;18.60;;;7.25;;
48835;SDS011;62581;47.342;7.908;2023-09-30T00:52:48;23.30;;;8.70;;
48835;SDS011;62581;47.342;7.908;2023-09-30T00:55:16;25.45;;;7.95;;
48835;SDS011;62581;47.342;7.908;2023-09-30T00:57:45;20.20;;;7.28;;
48835;SDS011;62581;47.342;7.908;2023-09-30T01:00:12;19.73;;;7.18;;
48835;SDS011;62581;47.342;7.908;2023-09-30T01:02:39;21.40;;;7.15;;
48835;SDS011;62581;47.342;7.908;2023-09-30T01:05:07;19.73;;;7.40;;
48835;SDS011;62581;47.342;7.908;2023-09-30T01:07:34;18.05;;;6.55;;
48835;SDS011;62581;47.342;7.908;2023-09-30T01:10:03;16.95;;;6.75;;
48835;SDS011;62581;47.342;7.908;2023-09-30T01:12:31;24.83;;;7.68;;
48835;SDS011;62581;47.342;7.908;2023-09-30T01:14:59;21.73;;;7.30;;
48835;SDS011;62581;47.342;7.908;2023-09-30T01:17:26;18.23;;;6.25;;
48835;SDS011;62581;47.342;7.908;2023-09-30T01:19:54;16.67;;;6.70;;
48835;SDS011;62581;47.342;7.908;2023-09-30T01:22:25;26.63;;;7.43;;
48835;SDS011;62581;47.342;7.908;2023-09-30T01:24:53;20.90;;;7.32;;
48835;SDS011;62581;47.342;7.908;2023-09-30T01:27:20;22.50;;;7.75;;
48835;SDS011;62581;47.342;7.908;2023-09-30T01:29:47;23.30;;;7.53;;
48835;SDS011;62581;47.342;7.908;2023-09-30T01:32:15;22.27;;;7.13;;
48835;SDS011;62581;47.342;7.908;2023-09-30T01:34:42;18.15;;;6.97;;
48835;SDS011;62581;47.342;7.908;2023-09-30T01:37:09;18.13;;;6.82;;
48835;SDS011;62581;47.342;7.908;2023-09-30T01:39:38;19.00;;;6.70;;
48835;SDS011;62581;47.342;7.908;2023-09-30T01:42:05;17.13;;;6.65;;
48835;SDS011;62581;47.342;7.908;2023-09-30T01:44:32;17.35;;;6.93;;
48835;SDS011;62581;47.342;7.908;2023-09-30T01:46:59;17.58;;;6.40;;
48835;SDS011;62581;47.342;7.908;2023-09-30T01:49:26;20.42;;;6.95;;
48835;SDS011;62581;47.342;7.908;2023-09-30T01:51:53;18.02;;;7.35;;
48835;SDS011;62581;47.342;7.908;2023-09-30T01:54:20;18.02;;;6.47;;
48835;SDS011;62581;47.342;7.908;2023-09-30T01:56:48;21.63;;;7.47;;
48835;SDS011;62581;47.342;7.908;2023-09-30T01:59:16;22.90;;;7.55;;
48835;SDS011;62581;47.342;7.908;2023-09-30T02:01:43;22.35;;;7.18;;
48835;SDS011;62581;47.342;7.908;2023-09-30T02:04:11;20.65;;;7.03;;
48835;SDS011;62581;47.342;7.908;2023-09-30T02:06:40;23.48;;;7.22;;
48835;SDS011;62581;47.342;7.908;2023-09-30T02:09:07;21.38;;;7.78;;
48835;SDS011;62581;47.342;7.908;2023-09-30T02:11:34;24.88;;;7.63;;
48835;SDS011;62581;47.342;7.908;2023-09-30T02:14:03;18.33;;;6.65;;
48835;SDS011;62581;47.342;7.908;2023-09-30T02:16:31;18.85;;;6.65;;
48835;SDS011;62581;47.342;7.908;2023-09-30T02:18:58;20.38;;;7.63;;
48835;SDS011;62581;47.342;7.908;2023-09-30T02:21:25;18.73;;;6.18;;
48835;SDS011;62581;47.342;7.908;2023-09-30T02:23:53;19.15;;;6.22;;
48835;SDS011;62581;47.342;7.908;2023-09-30T02:26:21;16.83;;;6.50;;
48835;SDS011;62581;47.342;7.908;2023-09-30T02:28:50;18.20;;;6.65;;
48835;SDS011;62581;47.342;7.908;2023-09-30T02:31:19;16.15;;;6.40;;
48835;SDS011;62581;47.342;7.908;2023-09-30T02:33:46;18.75;;;6.22;;
48835;SDS011;62581;47.342;7.908;2023-09-30T02:36:13;18.48;;;7.57;;
48835;SDS011;62581;47.342;7.908;2023-09-30T02:38:40;19.73;;;6.93;;
48835;SDS011;62581;47.342;7.908;2023-09-30T02:41:08;21.93;;;6.60;;
48835;SDS011;62581;47.342;7.908;2023-09-30T02:43:35;14.52;;;6.05;;
48835;SDS011;62581;47.342;7.908;2023-09-30T02:46:03;21.47;;;6.10;;
48835;SDS011;62581;47.342;7.908;2023-09-30T02:48:32;15.50;;;5.63;;
48835;SDS011;62581;47.342;7.908;2023-09-30T02:53:25;14.10;;;5.35;;
48835;SDS011;62581;47.342;7.908;2023-09-30T02:55:52;12.27;;;4.60;;
48835;SDS011;62581;47.342;7.908;2023-09-30T02:58:21;11.10;;;4.30;;
48835;SDS011;62581;47.342;7.908;2023-09-30T03:00:49;13.37;;;4.40;;
48835;SDS011;62581;47.342;7.908;2023-09-30T03:03:16;14.07;;;4.90;;
48835;SDS011;62581;47.342;7.908;2023-09-30T03:05:45;13.55;;;4.50;;
48835;SDS011;62581;47.342;7.908;2023-09-30T03:08:13;11.95;;;3.85;;
48835;SDS011;62581;47.342;7.908;2023-09-30T03:10:40;10.20;;;3.97;;
48835;SDS011;62581;47.342;7.908;2023-09-30T03:13:07;11.93;;;4.60;;
48835;SDS011;62581;47.342;7.908;2023-09-30T03:15:34;12.32;;;4.60;;
48835;SDS011;62581;47.342;7.908;2023-09-30T03:18:01;10.10;;;4.03;;
48835;SDS011;62581;47.342;7.908;2023-09-30T03:20:29;11.10;;;3.72;;
48835;SDS011;62581;47.342;7.908;2023-09-30T03:22:58;9.25;;;3.40;;
48835;SDS011;62581;47.342;7.908;2023-09-30T03:25:25;11.85;;;4.82;;
48835;SDS011;62581;47.342;7.908;2023-09-30T03:27:52;15.27;;;4.70;;
48835;SDS011;62581;47.342;7.908;2023-09-30T03:30:19;10.48;;;4.18;;
48835;SDS011;62581;47.342;7.908;2023-09-30T03:32:46;12.95;;;4.30;;
48835;SDS011;62581;47.342;7.908;2023-09-30T03:35:13;11.60;;;4.35;;
48835;SDS011;62581;47.342;7.908;2023-09-30T03:37:42;12.90;;;4.35;;
48835;SDS011;62581;47.342;7.908;2023-09-30T03:40:11;12.25;;;4.78;;
48835;SDS011;62581;47.342;7.908;2023-09-30T03:42:39;11.27;;;3.55;;
48835;SDS011;62581;47.342;7.908;2023-09-30T03:45:09;16.23;;;5.05;;
48835;SDS011;62581;47.342;7.908;2023-09-30T03:50:04;11.55;;;4.15;;
48835;SDS011;62581;47.342;7.908;2023-09-30T03:52:37;11.90;;;4.30;;
48835;SDS011;62581;47.342;7.908;2023-09-30T03:55:05;13.65;;;4.95;;
48835;SDS011;62581;47.342;7.908;2023-09-30T03:57:35;10.05;;;4.28;;
48835;SDS011;62581;47.342;7.908;2023-09-30T04:00:03;12.65;;;3.88;;
48835;SDS011;62581;47.342;7.908;2023-09-30T04:02:31;10.93;;;4.30;;
48835;SDS011;62581;47.342;7.908;2023-09-30T04:04:59;13.02;;;4.25;;
48835;SDS011;62581;47.342;7.908;2023-09-30T04:07:29;10.57;;;4.10;;
48835;SDS011;62581;47.342;7.908;2023-09-30T04:09:56;13.35;;;5.15;;
48835;SDS011;62581;47.342;7.908;2023-09-30T04:12:26;10.90;;;4.30;;
48835;SDS011;62581;47.342;7.908;2023-09-30T04:14:55;10.82;;;4.15;;
48835;SDS011;62581;47.342;7.908;2023-09-30T04:17:23;18.13;;;4.80;;
48835;SDS011;62581;47.342;7.908;2023-09-30T04:19:52;9.00;;;4.03;;
48835;SDS011;62581;47.342;7.908;2023-09-30T04:22:19;11.55;;;4.32;;
48835;SDS011;62581;47.342;7.908;2023-09-30T04:24:47;11.73;;;4.03;;
48835;SDS011;62581;47.342;7.908;2023-09-30T04:27:15;9.57;;;4.00;;
48835;SDS011;62581;47.342;7.908;2023-09-30T04:29:42;9.98;;;4.13;;
48835;SDS011;62581;47.342;7.908;2023-09-30T04:32:11;11.80;;;4.57;;
48835;SDS011;62581;47.342;7.908;2023-09-30T04:34:37;13.27;;;4.43;;
48835;SDS011;62581;47.342;7.908;2023-09-30T04:37:05;12.07;;;4.68;;
48835;SDS011;62581;47.342;7.908;2023-09-30T04:39:34;11.50;;;4.13;;
48835;SDS011;62581;47.342;7.908;2023-09-30T04:42:01;9.80;;;4.22;;
48835;SDS011;62581;47.342;7.908;2023-09-30T04:44:29;15.30;;;4.50;;
48835;SDS011;62581;47.342;7.908;2023-09-30T04:46:57;13.48;;;4.43;;
48835;SDS011;62581;47.342;7.908;2023-09-30T04:51:53;12.35;;;4.88;;
48835;SDS011;62581;47.342;7.908;2023-09-30T04:54:21;13.68;;;4.57;;
48835;SDS011;62581;47.342;7.908;2023-09-30T04:56:48;14.27;;;4.22;;
48835;SDS011;62581;47.342;7.908;2023-09-30T04:59:16;13.57;;;4.75;;
48835;SDS011;62581;47.342;7.908;2023-09-30T05:01:43;11.88;;;4.00;;
48835;SDS011;62581;47.342;7.908;2023-09-30T05:04:10;14.15;;;4.53;;
48835;SDS011;62581;47.342;7.908;2023-09-30T05:06:38;11.25;;;4.18;;
48835;SDS011;62581;47.342;7.908;2023-09-30T05:09:05;10.00;;;3.75;;
48835;SDS011;62581;47.342;7.908;2023-09-30T05:11:32;10.23;;;4.05;;
48835;SDS011;62581;47.342;7.908;2023-09-30T05:14:00;9.20;;;3.72;;
48835;SDS011;62581;47.342;7.908;2023-09-30T05:16:30;12.27;;;4.53;;
48835;SDS011;62581;47.342;7.908;2023-09-30T05:18:57;14.88;;;4.97;;
48835;SDS011;62581;47.342;7.908;2023-09-30T05:21:24;10.38;;;4.07;;
48835;SDS011;62581;47.342;7.908;2023-09-30T05:23:53;8.48;;;3.85;;
48835;SDS011;62581;47.342;7.908;2023-09-30T05:28:46;12.02;;;3.92;;
48835;SDS011;62581;47.342;7.908;2023-09-30T05:31:13;12.02;;;3.92;;
48835;SDS011;62581;47.342;7.908;2023-09-30T05:33:40;9.57;;;4.10;;
48835;SDS011;62581;47.342;7.908;2023-09-30T05:36:07;11.10;;;4.00;;
48835;SDS011;62581;47.342;7.908;2023-09-30T05:38:34;16.08;;;4.63;;
48835;SDS011;62581;47.342;7.908;2023-09-30T05:41:03;13.68;;;4.55;;
48835;SDS011;62581;47.342;7.908;2023-09-30T05:43:31;14.32;;;4.35;;
48835;SDS011;62581;47.342;7.908;2023-09-30T05:45:58;14.25;;;4.82;;
48835;SDS011;62581;47.342;7.908;2023-09-30T05:48:25;12.63;;;4.70;;
48835;SDS011;62581;47.342;7.908;2023-09-30T05:50:52;11.90;;;4.57;;
48835;SDS011;62581;47.342;7.908;2023-09-30T05:53:19;11.18;;;4.20;;
48835;SDS011;62581;47.342;7.908;2023-09-30T05:55:46;13.10;;;4.35;;
48835;SDS011;62581;47.342;7.908;2023-09-30T05:58:15;12.27;;;4.70;;
48835;SDS011;62581;47.342;7.908;2023-09-30T06:00:42;12.20;;;4.60;;
48835;SDS011;62581;47.342;7.908;2023-09-30T06:03:09;12.02;;;4.20;;
48835;SDS011;62581;47.342;7.908;2023-09-30T06:05:38;11.20;;;4.80;;
48835;SDS011;62581;47.342;7.908;2023-09-30T06:08:07;10.50;;;4.25;;
48835;SDS011;62581;47.342;7.908;2023-09-30T06:13:03;13.27;;;4.90;;
48835;SDS011;62581;47.342;7.908;2023-09-30T06:15:32;14.20;;;5.37;;
48835;SDS011;62581;47.342;7.908;2023-09-30T06:17:59;12.18;;;4.55;;
48835;SDS011;62581;47.342;7.908;2023-09-30T06:20:26;15.18;;;6.15;;
48835;SDS011;62581;47.342;7.908;2023-09-30T06:22:55;12.63;;;4.68;;
48835;SDS011;62581;47.342;7.908;2023-09-30T06:25:23;11.35;;;4.13;;
48835;SDS011;62581;47.342;7.908;2023-09-30T06:27:50;15.00;;;5.25;;
48835;SDS011;62581;47.342;7.908;2023-09-30T06:30:17;12.40;;;4.90;;
48835;SDS011;62581;47.342;7.908;2023-09-30T06:32:49;15.25;;;4.60;;
48835;SDS011;62581;47.342;7.908;2023-09-30T06:35:16;10.77;;;4.50;;
48835;SDS011;62581;47.342;7.908;2023-09-30T06:37:43;9.77;;;4.63;;
48835;SDS011;62581;47.342;7.908;2023-09-30T06:40:10;14.75;;;6.30;;
48835;SDS011;62581;47.342;7.908;2023-09-30T06:42:38;11.90;;;4.80;;
48835;SDS011;62581;47.342;7.908;2023-09-30T06:45:06;12.23;;;4.35;;
48835;SDS011;62581;47.342;7.908;2023-09-30T06:47:35;14.95;;;4.47;;
48835;SDS011;62581;47.342;7.908;2023-09-30T06:50:07;13.45;;;5.20;;
48835;SDS011;62581;47.342;7.908;2023-09-30T06:52:37;12.23;;;5.15;;
48835;SDS011;62581;47.342;7.908;2023-09-30T06:55:06;12.77;;;4.50;;
48835;SDS011;62581;47.342;7.908;2023-09-30T06:57:34;10.48;;;4.30;;
48835;SDS011;62581;47.342;7.908;2023-09-30T07:00:04;12.38;;;4.35;;
48835;SDS011;62581;47.342;7.908;2023-09-30T07:02:33;16.73;;;4.25;;
48835;SDS011;62581;47.342;7.908;2023-09-30T07:05:12;9.52;;;3.58;;
48835;SDS011;62581;47.342;7.908;2023-09-30T07:07:40;10.95;;;4.65;;
48835;SDS011;62581;47.342;7.908;2023-09-30T07:10:08;10.38;;;3.88;;
48835;SDS011;62581;47.342;7.908;2023-09-30T07:12:36;12.68;;;4.88;;
48835;SDS011;62581;47.342;7.908;2023-09-30T07:15:03;14.95;;;6.60;;
48835;SDS011;62581;47.342;7.908;2023-09-30T07:17:31;10.93;;;4.50;;
48835;SDS011;62581;47.342;7.908;2023-09-30T07:19:59;11.77;;;3.92;;
48835;SDS011;62581;47.342;7.908;2023-09-30T07:22:27;11.45;;;3.95;;
48835;SDS011;62581;47.342;7.908;2023-09-30T07:24:54;9.82;;;3.53;;
48835;SDS011;62581;47.342;7.908;2023-09-30T07:27:21;10.88;;;3.67;;
48835;SDS011;62581;47.342;7.908;2023-09-30T07:29:48;10.13;;;3.35;;
48835;SDS011;62581;47.342;7.908;2023-09-30T07:32:15;8.70;;;3.05;;
48835;SDS011;62581;47.342;7.908;2023-09-30T07:34:42;9.02;;;3.60;;
48835;SDS011;62581;47.342;7.908;2023-09-30T07:37:10;8.57;;;3.50;;
48835;SDS011;62581;47.342;7.908;2023-09-30T07:42:08;8.00;;;3.33;;
48835;SDS011;62581;47.342;7.908;2023-09-30T07:44:35;11.00;;;4.03;;
48835;SDS011;62581;47.342;7.908;2023-09-30T07:47:02;12.75;;;3.60;;
48835;SDS011;62581;47.342;7.908;2023-09-30T07:49:31;12.25;;;4.70;;
48835;SDS011;62581;47.342;7.908;2023-09-30T07:51:58;19.63;;;5.25;;
48835;SDS011;62581;47.342;7.908;2023-09-30T07:54:25;19.45;;;6.82;;
48835;SDS011;62581;47.342;7.908;2023-09-30T07:56:53;61.95;;;13.80;;
48835;SDS011;62581;47.342;7.908;2023-09-30T07:59:21;46.10;;;12.70;;
48835;SDS011;62581;47.342;7.908;2023-09-30T08:01:48;13.23;;;4.28;;
48835;SDS011;62581;47.342;7.908;2023-09-30T08:04:15;12.10;;;4.00;;
48835;SDS011;62581;47.342;7.908;2023-09-30T08:06:43;17.83;;;5.45;;
48835;SDS011;62581;47.342;7.908;2023-09-30T08:09:11;23.42;;;4.93;;
48835;SDS011;62581;47.342;7.908;2023-09-30T08:11:39;11.18;;;4.65;;
48835;SDS011;62581;47.342;7.908;2023-09-30T08:14:07;11.43;;;4.38;;
48835;SDS011;62581;47.342;7.908;2023-09-30T08:16:35;11.57;;;4.35;;
48835;SDS011;62581;47.342;7.908;2023-09-30T08:19:02;10.00;;;4.18;;
48835;SDS011;62581;47.342;7.908;2023-09-30T08:21:29;13.73;;;4.32;;
48835;SDS011;62581;47.342;7.908;2023-09-30T08:23:56;12.70;;;4.47;;
48835;SDS011;62581;47.342;7.908;2023-09-30T08:26:23;13.18;;;4.10;;
48835;SDS011;62581;47.342;7.908;2023-09-30T08:28:50;14.35;;;4.97;;
48835;SDS011;62581;47.342;7.908;2023-09-30T08:31:19;11.20;;;4.13;;
48835;SDS011;62581;47.342;7.908;2023-09-30T08:33:47;15.82;;;5.32;;
48835;SDS011;62581;47.342;7.908;2023-09-30T08:36:14;15.93;;;5.32;;
48835;SDS011;62581;47.342;7.908;2023-09-30T08:38:41;12.73;;;4.25;;
48835;SDS011;62581;47.342;7.908;2023-09-30T08:41:09;18.08;;;4.63;;
48835;SDS011;62581;47.342;7.908;2023-09-30T08:43:37;9.68;;;3.90;;
48835;SDS011;62581;47.342;7.908;2023-09-30T08:46:05;10.88;;;4.00;;
48835;SDS011;62581;47.342;7.908;2023-09-30T08:48:34;17.02;;;4.93;;
48835;SDS011;62581;47.342;7.908;2023-09-30T08:51:01;8.02;;;3.22;;
48835;SDS011;62581;47.342;7.908;2023-09-30T08:53:29;9.25;;;3.28;;
48835;SDS011;62581;47.342;7.908;2023-09-30T08:55:56;14.23;;;3.97;;
48835;SDS011;62581;47.342;7.908;2023-09-30T08:58:27;13.13;;;3.90;;
48835;SDS011;62581;47.342;7.908;2023-09-30T09:00:55;11.23;;;3.72;;
48835;SDS011;62581;47.342;7.908;2023-09-30T09:03:23;9.80;;;3.92;;
48835;SDS011;62581;47.342;7.908;2023-09-30T09:05:56;11.13;;;4.32;;
48835;SDS011;62581;47.342;7.908;2023-09-30T09:08:25;11.50;;;3.65;;
48835;SDS011;62581;47.342;7.908;2023-09-30T09:10:56;10.02;;;3.90;;
48835;SDS011;62581;47.342;7.908;2023-09-30T09:13:24;8.65;;;3.65;;
48835;SDS011;62581;47.342;7.908;2023-09-30T09:16:05;11.00;;;4.05;;
48835;SDS011;62581;47.342;7.908;2023-09-30T09:18:33;11.20;;;4.80;;
48835;SDS011;62581;47.342;7.908;2023-09-30T09:21:12;7.60;;;3.80;;
48835;SDS011;62581;47.342;7.908;2023-09-30T09:23:44;9.65;;;4.07;;
48835;SDS011;62581;47.342;7.908;2023-09-30T09:26:12;9.85;;;3.65;;
48835;SDS011;62581;47.342;7.908;2023-09-30T09:28:50;10.57;;;3.87;;
48835;SDS011;62581;47.342;7.908;2023-09-30T09:31:23;8.57;;;3.55;;
48835;SDS011;62581;47.342;7.908;2023-09-30T09:33:52;12.05;;;4.32;;
48835;SDS011;62581;47.342;7.908;2023-09-30T09:36:21;8.70;;;4.13;;
48835;SDS011;62581;47.342;7.908;2023-09-30T09:39:06;13.27;;;3.70;;
48835;SDS011;62581;47.342;7.908;2023-09-30T09:41:34;10.05;;;3.75;;
48835;SDS011;62581;47.342;7.908;2023-09-30T09:44:16;8.90;;;3.70;;
48835;SDS011;62581;47.342;7.908;2023-09-30T09:46:45;10.00;;;3.88;;
48835;SDS011;62581;47.342;7.908;2023-09-30T09:49:15;10.65;;;4.53;;
48835;SDS011;62581;47.342;7.908;2023-09-30T09:51:45;12.30;;;4.45;;
48835;SDS011;62581;47.342;7.908;2023-09-30T09:54:13;10.25;;;3.92;;
48835;SDS011;62581;47.342;7.908;2023-09-30T09:59:11;9.65;;;3.75;;
48835;SDS011;62581;47.342;7.908;2023-09-30T10:01:39;9.32;;;4.25;;
48835;SDS011;62581;47.342;7.908;2023-09-30T10:04:07;10.95;;;4.35;;
48835;SDS011;62581;47.342;7.908;2023-09-30T10:06:37;9.90;;;4.47;;
48835;SDS011;62581;47.342;7.908;2023-09-30T10:09:09;9.85;;;4.30;;
48835;SDS011;62581;47.342;7.908;2023-09-30T10:11:37;10.40;;;4.45;;
48835;SDS011;62581;47.342;7.908;2023-09-30T10:14:05;10.15;;;4.45;;
48835;SDS011;62581;47.342;7.908;2023-09-30T10:16:47;9.70;;;4.30;;
48835;SDS011;62581;47.342;7.908;2023-09-30T10:19:16;13.48;;;4.82;;
48835;SDS011;62581;47.342;7.908;2023-09-30T10:24:51;13.48;;;4.90;;
48835;SDS011;62581;47.342;7.908;2023-09-30T10:27:35;13.95;;;4.70;;
48835;SDS011;62581;47.342;7.908;2023-09-30T10:30:09;14.00;;;5.55;;
48835;SDS011;62581;47.342;7.908;2023-09-30T10:35:45;10.23;;;4.88;;
48835;SDS011;62581;47.342;7.908;2023-09-30T10:41:04;14.02;;;5.90;;
48835;SDS011;62581;47.342;7.908;2023-09-30T10:43:33;12.02;;;5.05;;
48835;SDS011;62581;47.342;7.908;2023-09-30T10:46:02;9.60;;;4.38;;
48835;SDS011;62581;47.342;7.908;2023-09-30T10:48:34;12.55;;;4.75;;
48835;SDS011;62581;47.342;7.908;2023-09-30T10:51:15;12.23;;;4.80;;
48835;SDS011;62581;47.342;7.908;2023-09-30T10:53:47;10.30;;;4.72;;
48835;SDS011;62581;47.342;7.908;2023-09-30T10:56:18;12.05;;;5.15;;
48835;SDS011;62581;47.342;7.908;2023-09-30T10:58:47;10.48;;;5.10;;
48835;SDS011;62581;47.342;7.908;2023-09-30T11:03:43;12.60;;;5.53;;
48835;SDS011;62581;47.342;7.908;2023-09-30T11:06:11;13.75;;;5.75;;
48835;SDS011;62581;47.342;7.908;2023-09-30T11:08:44;14.10;;;5.93;;
48835;SDS011;62581;47.342;7.908;2023-09-30T11:11:13;14.15;;;5.65;;
48835;SDS011;62581;47.342;7.908;2023-09-30T11:13:42;12.40;;;6.13;;
48835;SDS011;62581;47.342;7.908;2023-09-30T11:16:09;13.93;;;6.13;;
48835;SDS011;62581;47.342;7.908;2023-09-30T11:18:37;12.18;;;5.60;;
48835;SDS011;62581;47.342;7.908;2023-09-30T11:21:08;14.07;;;5.95;;
48835;SDS011;62581;47.342;7.908;2023-09-30T11:23:36;14.18;;;6.43;;
48835;SDS011;62581;47.342;7.908;2023-09-30T11:28:37;14.05;;;6.03;;
48835;SDS011;62581;47.342;7.908;2023-09-30T11:31:11;14.57;;;6.68;;
48835;SDS011;62581;47.342;7.908;2023-09-30T11:33:49;13.05;;;6.43;;
48835;SDS011;62581;47.342;7.908;2023-09-30T11:36:18;14.68;;;6.40;;
48835;SDS011;62581;47.342;7.908;2023-09-30T11:38:46;12.23;;;6.43;;
48835;SDS011;62581;47.342;7.908;2023-09-30T11:43:57;12.32;;;6.68;;
48835;SDS011;62581;47.342;7.908;2023-09-30T11:46:28;14.18;;;6.78;;
48835;SDS011;62581;47.342;7.908;2023-09-30T11:51:26;13.75;;;5.60;;
48835;SDS011;62581;47.342;7.908;2023-09-30T11:57:49;14.55;;;6.07;;
48835;SDS011;62581;47.342;7.908;2023-09-30T12:01:56;14.00;;;6.65;;
48835;SDS011;62581;47.342;7.908;2023-09-30T12:05:07;14.20;;;6.68;;
48835;SDS011;62581;47.342;7.908;2023-09-30T12:13:15;15.32;;;6.53;;
48835;SDS011;62581;47.342;7.908;2023-09-30T12:19:22;11.60;;;5.95;;
48835;SDS011;62581;47.342;7.908;2023-09-30T12:43:42;12.52;;;5.20;;
48835;SDS011;62581;47.342;7.908;2023-09-30T12:50:03;13.40;;;5.55;;
48835;SDS011;62581;47.342;7.908;2023-09-30T12:54:08;14.18;;;6.32;;
48835;SDS011;62581;47.342;7.908;2023-09-30T13:00:48;11.73;;;5.80;;
48835;SDS011;62581;47.342;7.908;2023-09-30T13:06:57;10.68;;;5.57;;
48835;SDS011;62581;47.342;7.908;2023-09-30T13:09:33;10.63;;;5.53;;
48835;SDS011;62581;47.342;7.908;2023-09-30T13:12:18;9.38;;;5.45;;
48835;SDS011;62581;47.342;7.908;2023-09-30T13:15:38;11.55;;;5.93;;
48835;SDS011;62581;47.342;7.908;2023-09-30T13:22:51;14.20;;;6.20;;
48835;SDS011;62581;47.342;7.908;2023-09-30T13:25:33;10.07;;;5.78;;
48835;SDS011;62581;47.342;7.908;2023-09-30T13:28:33;12.85;;;5.93;;
48835;SDS011;62581;47.342;7.908;2023-09-30T13:38:40;12.05;;;6.22;;
48835;SDS011;62581;47.342;7.908;2023-09-30T13:41:13;13.00;;;5.95;;
48835;SDS011;62581;47.342;7.908;2023-09-30T13:44:32;12.00;;;5.68;;
48835;SDS011;62581;47.342;7.908;2023-09-30T13:47:35;10.90;;;5.80;;
48835;SDS011;62581;47.342;7.908;2023-09-30T13:53:53;10.07;;;5.47;;
48835;SDS011;62581;47.342;7.908;2023-09-30T14:00:19;12.00;;;4.55;;
48835;SDS011;62581;47.342;7.908;2023-09-30T14:02:46;9.43;;;4.90;;
48835;SDS011;62581;47.342;7.908;2023-09-30T14:05:13;9.33;;;4.93;;
48835;SDS011;62581;47.342;7.908;2023-09-30T14:07:40;10.75;;;5.18;;
48835;SDS011;62581;47.342;7.908;2023-09-30T14:10:08;10.43;;;4.63;;
48835;SDS011;62581;47.342;7.908;2023-09-30T14:15:05;12.80;;;5.13;;
48835;SDS011;62581;47.342;7.908;2023-09-30T14:17:35;11.70;;;5.35;;
48835;SDS011;62581;47.342;7.908;2023-09-30T14:20:02;11.73;;;5.50;;
48835;SDS011;62581;47.342;7.908;2023-09-30T14:22:30;10.00;;;5.03;;
48835;SDS011;62581;47.342;7.908;2023-09-30T14:24:57;16.75;;;5.72;;
48835;SDS011;62581;47.342;7.908;2023-09-30T14:27:24;14.30;;;5.75;;
48835;SDS011;62581;47.342;7.908;2023-09-30T14:29:53;12.93;;;5.40;;
48835;SDS011;62581;47.342;7.908;2023-09-30T14:32:20;9.95;;;5.32;;
48835;SDS011;62581;47.342;7.908;2023-09-30T14:34:48;11.63;;;5.63;;
48835;SDS011;62581;47.342;7.908;2023-09-30T14:37:16;12.95;;;5.28;;
48835;SDS011;62581;47.342;7.908;2023-09-30T14:39:48;14.52;;;5.35;;
48835;SDS011;62581;47.342;7.908;2023-09-30T14:42:15;12.48;;;5.25;;
48835;SDS011;62581;47.342;7.908;2023-09-30T14:44:42;11.65;;;5.18;;
48835;SDS011;62581;47.342;7.908;2023-09-30T14:47:11;14.77;;;5.38;;
48835;SDS011;62581;47.342;7.908;2023-09-30T14:52:05;11.98;;;4.97;;
48835;SDS011;62581;47.342;7.908;2023-09-30T14:54:32;10.48;;;5.15;;
48835;SDS011;62581;47.342;7.908;2023-09-30T14:56:59;14.20;;;5.10;;
48835;SDS011;62581;47.342;7.908;2023-09-30T14:59:26;14.35;;;5.88;;
48835;SDS011;62581;47.342;7.908;2023-09-30T15:01:53;10.45;;;4.97;;
48835;SDS011;62581;47.342;7.908;2023-09-30T15:04:21;10.98;;;5.28;;
48835;SDS011;62581;47.342;7.908;2023-09-30T15:06:49;8.65;;;5.07;;
48835;SDS011;62581;47.342;7.908;2023-09-30T15:09:16;9.88;;;4.90;;
48835;SDS011;62581;47.342;7.908;2023-09-30T15:11:44;12.43;;;5.30;;
48835;SDS011;62581;47.342;7.908;2023-09-30T15:14:25;11.63;;;5.72;;
48835;SDS011;62581;47.342;7.908;2023-09-30T15:16:52;11.20;;;5.13;;
48835;SDS011;62581;47.342;7.908;2023-09-30T15:19:19;9.63;;;5.05;;
48835;SDS011;62581;47.342;7.908;2023-09-30T15:21:47;9.90;;;4.70;;
48835;SDS011;62581;47.342;7.908;2023-09-30T15:24:14;8.70;;;4.80;;
48835;SDS011;62581;47.342;7.908;2023-09-30T15:26:41;10.75;;;5.28;;
48835;SDS011;62581;47.342;7.908;2023-09-30T15:29:09;12.82;;;5.88;;
48835;SDS011;62581;47.342;7.908;2023-09-30T15:31:36;10.73;;;5.30;;
48835;SDS011;62581;47.342;7.908;2023-09-30T15:34:03;9.52;;;5.18;;
48835;SDS011;62581;47.342;7.908;2023-09-30T15:36:30;12.50;;;5.97;;
48835;SDS011;62581;47.342;7.908;2023-09-30T15:38:59;13.07;;;6.27;;
48835;SDS011;62581;47.342;7.908;2023-09-30T15:41:26;12.38;;;5.50;;
48835;SDS011;62581;47.342;7.908;2023-09-30T15:43:53;10.43;;;5.45;;
48835;SDS011;62581;47.342;7.908;2023-09-30T15:46:24;11.18;;;5.72;;
48835;SDS011;62581;47.342;7.908;2023-09-30T15:48:51;12.05;;;5.47;;
48835;SDS011;62581;47.342;7.908;2023-09-30T15:51:18;9.10;;;5.20;;
48835;SDS011;62581;47.342;7.908;2023-09-30T15:53:45;11.10;;;5.68;;
48835;SDS011;62581;47.342;7.908;2023-09-30T15:56:13;12.05;;;5.07;;
48835;SDS011;62581;47.342;7.908;2023-09-30T15:58:41;11.07;;;5.85;;
48835;SDS011;62581;47.342;7.908;2023-09-30T16:01:10;10.65;;;5.55;;
48835;SDS011;62581;47.342;7.908;2023-09-30T16:03:39;13.02;;;5.85;;
48835;SDS011;62581;47.342;7.908;2023-09-30T16:06:07;14.15;;;5.70;;
48835;SDS011;62581;47.342;7.908;2023-09-30T16:08:34;13.97;;;6.27;;
48835;SDS011;62581;47.342;7.908;2023-09-30T16:11:01;12.32;;;5.95;;
48835;SDS011;62581;47.342;7.908;2023-09-30T16:13:30;13.05;;;5.60;;
48835;SDS011;62581;47.342;7.908;2023-09-30T16:15:57;18.15;;;6.13;;
48835;SDS011;62581;47.342;7.908;2023-09-30T16:18:24;11.20;;;5.18;;
48835;SDS011;62581;47.342;7.908;2023-09-30T16:20:52;12.07;;;5.15;;
48835;SDS011;62581;47.342;7.908;2023-09-30T16:23:19;13.30;;;6.10;;
48835;SDS011;62581;47.342;7.908;2023-09-30T16:25:46;11.93;;;5.47;;
48835;SDS011;62581;47.342;7.908;2023-09-30T16:28:13;12.93;;;5.80;;
48835;SDS011;62581;47.342;7.908;2023-09-30T16:30:42;12.85;;;5.72;;
48835;SDS011;62581;47.342;7.908;2023-09-30T16:33:09;14.35;;;6.40;;
48835;SDS011;62581;47.342;7.908;2023-09-30T16:35:36;12.38;;;5.05;;
48835;SDS011;62581;47.342;7.908;2023-09-30T16:38:03;12.60;;;5.43;;